createdAt,value
2023-04-10T00:00:04.029Z,99.90
2023-04-10T00:02:31.295Z,99.90
2023-04-10T00:04:58.673Z,99.90
2023-04-10T00:07:26.402Z,99.90
2023-04-10T00:09:53.448Z,99.90
2023-04-10T00:12:20.546Z,99.90
2023-04-10T00:14:47.483Z,99.90
2023-04-10T00:17:14.227Z,99.90
2023-04-10T00:19:41.013Z,99.90
2023-04-10T00:22:07.795Z,99.90
2023-04-10T00:24:34.548Z,99.90
2023-04-10T00:27:01.618Z,99.90
2023-04-10T00:29:28.423Z,99.90
2023-04-10T00:31:55.296Z,99.90
2023-04-10T00:34:22.104Z,99.90
2023-04-10T00:36:48.834Z,99.90
2023-04-10T00:39:15.824Z,99.90
2023-04-10T00:41:42.580Z,99.90
2023-04-10T00:44:09.409Z,99.90
2023-04-10T00:46:38.197Z,99.90
2023-04-10T00:49:06.287Z,99.90
2023-04-10T00:51:33.696Z,99.90
2023-04-10T00:54:02.187Z,99.90
2023-04-10T00:56:32.237Z,99.90
2023-04-10T00:58:59.243Z,99.90
2023-04-10T01:01:26.234Z,99.90
2023-04-10T01:03:54.242Z,99.90
2023-04-10T01:06:50.705Z,99.90
2023-04-10T01:09:41.282Z,99.90
2023-04-10T01:12:36.470Z,99.90
2023-04-10T01:15:15.781Z,99.90
2023-04-10T01:18:07.040Z,99.90
2023-04-10T01:20:39.512Z,99.90
2023-04-10T01:23:36.862Z,99.90
2023-04-10T01:26:08.595Z,99.90
2023-04-10T01:29:01.133Z,99.90
2023-04-10T01:32:18.077Z,99.90
2023-04-10T01:34:54.286Z,99.90
2023-04-10T01:37:26.005Z,99.90
2023-04-10T01:40:02.632Z,99.90
2023-04-10T01:42:39.902Z,99.90
2023-04-10T01:45:14.635Z,99.90
2023-04-10T01:47:42.631Z,99.90
2023-04-10T01:50:11.932Z,99.90
2023-04-10T01:52:40.476Z,99.90
2023-04-10T01:55:09.360Z,99.90
2023-04-10T01:57:36.375Z,99.90
2023-04-10T02:00:04.643Z,99.90
2023-04-10T02:02:33.937Z,99.90
2023-04-10T02:05:01.205Z,99.90
2023-04-10T02:07:46.326Z,99.90
2023-04-10T02:10:24.582Z,99.90
2023-04-10T02:13:14.111Z,99.90
2023-04-10T02:15:46.529Z,99.90
2023-04-10T02:18:17.756Z,99.90
2023-04-10T02:20:45.478Z,99.90
2023-04-10T02:23:12.860Z,99.90
2023-04-10T02:25:39.734Z,99.90
2023-04-10T02:28:08.035Z,99.90
2023-04-10T02:30:35.706Z,99.90
2023-04-10T02:33:02.561Z,99.90
2023-04-10T02:35:29.327Z,99.90
2023-04-10T02:37:56.292Z,99.90
2023-04-10T02:40:23.389Z,99.90
2023-04-10T02:42:50.258Z,99.90
2023-04-10T02:45:17.037Z,99.90
2023-04-10T02:47:43.792Z,99.90
2023-04-10T02:50:11.298Z,99.90
2023-04-10T02:52:38.154Z,99.90
2023-04-10T02:55:05.926Z,99.90
2023-04-10T02:57:32.624Z,99.90
2023-04-10T02:59:59.394Z,99.90
2023-04-10T03:02:26.389Z,99.90
2023-04-10T03:04:53.535Z,99.90
2023-04-10T03:07:20.454Z,99.90
2023-04-10T03:09:47.243Z,99.90
2023-04-10T03:12:14.009Z,99.90
2023-04-10T03:14:41.413Z,99.90
2023-04-10T03:17:08.211Z,99.90
2023-04-10T03:19:34.987Z,99.90
2023-04-10T03:22:02.201Z,99.90
2023-04-10T03:24:31.737Z,99.90
2023-04-10T03:26:58.569Z,99.90
2023-04-10T03:29:25.356Z,99.90
2023-04-10T03:31:52.118Z,99.90
2023-04-10T03:34:18.838Z,99.90
2023-04-10T03:36:46.500Z,99.90
2023-04-10T03:39:13.331Z,99.90
2023-04-10T03:41:40.216Z,99.90
2023-04-10T03:44:07.286Z,99.90
2023-04-10T03:46:34.052Z,99.90
2023-04-10T03:49:00.824Z,99.90
2023-04-10T03:51:27.772Z,99.90
2023-04-10T03:53:54.760Z,99.90
2023-04-10T03:56:22.471Z,99.90
2023-04-10T03:58:49.225Z,99.90
2023-04-10T04:01:16.042Z,99.90
2023-04-10T04:03:42.993Z,99.90
2023-04-10T04:06:09.882Z,99.90
2023-04-10T04:08:38.507Z,99.90
2023-04-10T04:11:06.062Z,99.90
2023-04-10T04:13:32.768Z,99.90
2023-04-10T04:16:02.367Z,99.90
2023-04-10T04:18:29.058Z,99.90
2023-04-10T04:20:55.804Z,99.90
2023-04-10T04:23:22.581Z,99.90
2023-04-10T04:25:52.614Z,99.90
2023-04-10T04:28:19.648Z,99.90
2023-04-10T04:30:46.337Z,99.90
2023-04-10T04:33:13.119Z,99.90
2023-04-10T04:35:39.897Z,99.90
2023-04-10T04:38:06.662Z,99.90
2023-04-10T04:40:33.478Z,99.90
2023-04-10T04:43:00.204Z,99.90
2023-04-10T04:45:26.962Z,99.90
2023-04-10T04:47:53.738Z,99.90
2023-04-10T04:50:20.504Z,99.90
2023-04-10T04:52:47.833Z,99.90
2023-04-10T04:55:14.542Z,99.90
2023-04-10T04:57:41.267Z,99.90
2023-04-10T05:00:08.691Z,99.90
2023-04-10T05:02:35.555Z,99.90
2023-04-10T05:05:02.503Z,99.90
2023-04-10T05:07:29.469Z,99.90
2023-04-10T05:09:56.647Z,99.90
2023-04-10T05:12:23.343Z,99.90
2023-04-10T05:14:50.203Z,99.90
2023-04-10T05:17:16.939Z,99.90
2023-04-10T05:19:43.665Z,99.90
2023-04-10T05:22:10.455Z,99.90
2023-04-10T05:24:37.168Z,99.90
2023-04-10T05:27:03.943Z,99.90
2023-04-10T05:29:30.864Z,99.90
2023-04-10T05:31:57.591Z,99.90
2023-04-10T05:34:24.334Z,99.90
2023-04-10T05:36:51.066Z,99.90
2023-04-10T05:39:17.886Z,99.90
2023-04-10T05:41:44.616Z,99.90
2023-04-10T05:44:11.383Z,99.90
2023-04-10T05:46:38.145Z,99.90
2023-04-10T05:49:04.893Z,99.90
2023-04-10T05:51:31.898Z,99.90
2023-04-10T05:53:58.620Z,99.90
2023-04-10T05:56:25.502Z,99.90
2023-04-10T05:58:52.475Z,99.90
2023-04-10T06:01:19.364Z,99.90
2023-04-10T06:03:46.534Z,99.90
2023-04-10T06:06:13.619Z,99.90
2023-04-10T06:08:40.610Z,99.90
2023-04-10T06:11:07.370Z,99.90
2023-04-10T06:13:34.116Z,99.90
2023-04-10T06:16:01.687Z,99.90
2023-04-10T06:18:28.539Z,99.90
2023-04-10T06:20:58.028Z,99.90
2023-04-10T06:23:24.836Z,99.90
2023-04-10T06:25:51.750Z,99.90
2023-04-10T06:28:18.617Z,99.90
2023-04-10T06:30:45.350Z,99.90
2023-04-10T06:33:12.153Z,99.90
2023-04-10T06:35:39.111Z,99.90
2023-04-10T06:38:05.993Z,99.90
2023-04-10T06:40:34.070Z,99.90
2023-04-10T06:43:01.388Z,99.90
2023-04-10T06:45:28.194Z,99.90
2023-04-10T06:47:55.361Z,99.90
2023-04-10T06:50:22.205Z,99.90
2023-04-10T06:52:48.952Z,99.90
2023-04-10T06:55:15.876Z,99.90
2023-04-10T06:57:43.380Z,99.90
2023-04-10T07:00:10.789Z,99.90
2023-04-10T07:02:37.815Z,99.90
2023-04-10T07:05:05.139Z,99.90
2023-04-10T07:07:32.877Z,99.90
2023-04-10T07:09:59.631Z,99.90
2023-04-10T07:12:26.749Z,99.90
2023-04-10T07:14:53.486Z,99.90
2023-04-10T07:17:20.435Z,99.90
2023-04-10T07:19:47.242Z,99.90
2023-04-10T07:22:14.659Z,99.90
2023-04-10T07:24:41.536Z,99.90
2023-04-10T07:27:08.337Z,99.90
2023-04-10T07:29:35.168Z,99.90
2023-04-10T07:32:01.971Z,99.90
2023-04-10T07:34:32.203Z,99.90
2023-04-10T07:36:58.963Z,99.90
2023-04-10T07:39:25.944Z,99.70
2023-04-10T07:41:54.752Z,99.10
2023-04-10T07:44:21.690Z,99.50
2023-04-10T07:46:48.390Z,98.00
2023-04-10T07:49:15.309Z,96.40
2023-04-10T07:51:42.075Z,96.40
2023-04-10T07:54:08.785Z,94.10
2023-04-10T07:56:35.710Z,93.70
2023-04-10T07:59:03.446Z,92.80
2023-04-10T08:01:30.167Z,92.90
2023-04-10T08:03:57.347Z,91.80
2023-04-10T08:06:24.284Z,91.40
2023-04-10T08:08:52.362Z,91.00
2023-04-10T08:11:31.754Z,91.00
2023-04-10T08:14:05.276Z,87.50
2023-04-10T08:16:34.921Z,87.40
2023-04-10T08:19:02.759Z,86.40
2023-04-10T08:21:31.935Z,84.80
2023-04-10T08:24:01.803Z,82.20
2023-04-10T08:26:29.429Z,79.90
2023-04-10T08:28:58.704Z,78.00
2023-04-10T08:31:28.034Z,78.30
2023-04-10T08:33:55.687Z,77.70
2023-04-10T08:36:22.976Z,76.90
2023-04-10T08:38:49.866Z,74.40
2023-04-10T08:41:18.916Z,75.50
2023-04-10T08:43:46.117Z,75.00
2023-04-10T08:46:14.578Z,70.30
2023-04-10T08:48:46.433Z,70.70
2023-04-10T08:51:20.477Z,69.60
2023-04-10T08:54:03.154Z,71.40
2023-04-10T08:56:33.286Z,70.50
2023-04-10T08:59:03.430Z,68.50
2023-04-10T09:01:31.065Z,69.40
2023-04-10T09:03:59.100Z,68.70
2023-04-10T09:06:26.237Z,68.40
2023-04-10T09:08:53.038Z,68.30
2023-04-10T09:11:19.765Z,68.70
2023-04-10T09:13:46.880Z,67.60
2023-04-10T09:16:14.313Z,66.50
2023-04-10T09:18:50.470Z,64.20
2023-04-10T09:21:20.373Z,62.70
2023-04-10T09:23:49.052Z,63.00
2023-04-10T09:26:30.953Z,64.50
2023-04-10T09:29:01.287Z,65.20
2023-04-10T09:31:31.861Z,64.00
2023-04-10T09:34:23.318Z,62.10
2023-04-10T09:36:58.837Z,61.40
2023-04-10T09:39:43.121Z,60.90
2023-04-10T09:42:12.360Z,59.60
2023-04-10T09:44:41.620Z,59.60
2023-04-10T09:47:14.010Z,57.40
2023-04-10T09:49:54.495Z,57.10
2023-04-10T09:52:27.278Z,55.90
2023-04-10T09:55:17.115Z,57.20
2023-04-10T09:57:45.206Z,56.30
2023-04-10T10:00:14.122Z,56.30
2023-04-10T10:02:42.294Z,56.20
2023-04-10T10:05:11.058Z,54.50
2023-04-10T10:07:39.355Z,55.00
2023-04-10T10:10:09.007Z,54.40
2023-04-10T10:12:51.835Z,55.10
2023-04-10T10:15:35.867Z,53.70
2023-04-10T10:18:21.505Z,53.20
2023-04-10T10:20:50.560Z,52.90
2023-04-10T10:23:19.835Z,53.80
2023-04-10T10:25:48.960Z,52.60
2023-04-10T10:28:18.860Z,50.60
2023-04-10T10:30:47.341Z,51.10
2023-04-10T10:33:14.740Z,50.00
2023-04-10T10:35:42.693Z,48.50
2023-04-10T10:38:10.852Z,49.60
2023-04-10T10:41:02.209Z,50.20
2023-04-10T10:43:55.732Z,51.50
2023-04-10T10:46:58.617Z,51.30
2023-04-10T10:49:54.896Z,49.80
2023-04-10T10:52:45.717Z,48.90
2023-04-10T10:55:36.371Z,48.30
2023-04-10T10:58:08.926Z,49.60
2023-04-10T11:00:50.671Z,48.90
2023-04-10T11:03:17.488Z,48.80
2023-04-10T11:05:51.087Z,47.90
2023-04-10T11:08:55.184Z,48.40
2023-04-10T11:11:27.210Z,47.00
2023-04-10T11:13:56.559Z,45.90
2023-04-10T11:16:31.266Z,45.50
2023-04-10T11:19:14.771Z,44.80
2023-04-10T11:22:05.192Z,45.30
2023-04-10T11:25:01.859Z,45.80
2023-04-10T11:27:48.266Z,46.10
2023-04-10T11:30:44.450Z,46.40
2023-04-10T11:33:18.879Z,48.20
2023-04-10T11:35:46.976Z,47.60
2023-04-10T11:38:17.148Z,45.70
2023-04-10T11:41:06.593Z,43.60
2023-04-10T11:43:34.954Z,43.60
2023-04-10T11:46:04.563Z,43.70
2023-04-10T11:48:32.164Z,42.10
2023-04-10T11:51:01.572Z,42.30
2023-04-10T11:53:29.915Z,43.40
2023-04-10T11:55:56.796Z,44.40
2023-04-10T11:58:28.675Z,40.40
2023-04-10T12:01:02.041Z,41.00
2023-04-10T12:03:33.744Z,41.40
2023-04-10T12:06:00.796Z,40.00
2023-04-10T12:08:36.252Z,40.60
2023-04-10T12:11:03.475Z,41.40
2023-04-10T12:13:32.196Z,40.30
2023-04-10T12:16:02.123Z,42.40
2023-04-10T12:18:30.765Z,40.80
2023-04-10T12:20:59.452Z,40.60
2023-04-10T12:23:29.102Z,41.40
2023-04-10T12:26:17.086Z,40.90
2023-04-10T12:28:57.495Z,42.30
2023-04-10T12:31:33.570Z,42.50
2023-04-10T12:34:02.121Z,40.40
2023-04-10T12:36:31.976Z,40.60
2023-04-10T12:39:01.739Z,39.40
2023-04-10T12:41:33.949Z,39.20
2023-04-10T12:44:14.607Z,39.30
2023-04-10T12:46:43.087Z,39.00
2023-04-10T12:49:15.636Z,39.00
2023-04-10T12:51:53.008Z,39.30
2023-04-10T12:54:33.552Z,38.20
2023-04-10T12:57:01.932Z,39.70
2023-04-10T12:59:32.808Z,39.30
2023-04-10T13:01:59.712Z,38.70
2023-04-10T13:04:27.013Z,38.70
2023-04-10T13:06:53.964Z,39.70
2023-04-10T13:09:21.108Z,39.40
2023-04-10T13:11:48.542Z,38.20
2023-04-10T13:14:17.689Z,40.10
2023-04-10T13:16:44.565Z,38.20
2023-04-10T13:19:12.811Z,38.50
2023-04-10T13:21:39.688Z,39.00
2023-04-10T13:24:06.421Z,39.70
2023-04-10T13:26:33.164Z,37.70
2023-04-10T13:28:59.891Z,37.70
2023-04-10T13:31:26.637Z,36.00
2023-04-10T13:33:53.410Z,36.40
2023-04-10T13:36:20.191Z,36.80
2023-04-10T13:38:46.950Z,37.40
2023-04-10T13:41:13.708Z,37.20
2023-04-10T13:43:40.671Z,36.90
2023-04-10T13:46:07.526Z,37.30
2023-04-10T13:48:40.695Z,37.00
2023-04-10T13:51:08.832Z,36.40
2023-04-10T13:53:35.746Z,35.80
2023-04-10T13:56:02.560Z,34.30
2023-04-10T13:58:31.829Z,35.50
2023-04-10T14:00:59.100Z,34.60
2023-04-10T14:03:26.045Z,35.50
2023-04-10T14:05:53.370Z,35.80
2023-04-10T14:08:20.492Z,37.10
2023-04-10T14:10:51.248Z,35.50
2023-04-10T14:13:18.784Z,33.60
2023-04-10T14:15:45.986Z,35.10
2023-04-10T14:18:12.959Z,32.60
2023-04-10T14:20:42.171Z,32.30
2023-04-10T14:23:09.991Z,30.00
2023-04-10T14:25:36.775Z,28.30
2023-04-10T14:28:03.491Z,26.60
2023-04-10T14:30:32.517Z,25.30
2023-04-10T14:32:59.658Z,25.90
2023-04-10T14:35:26.645Z,24.50
2023-04-10T14:37:53.420Z,24.90
2023-04-10T14:40:20.289Z,23.40
2023-04-10T14:42:47.023Z,24.80
2023-04-10T14:45:13.841Z,23.90
2023-04-10T14:47:41.776Z,25.30
2023-04-10T14:50:09.026Z,25.70
2023-04-10T14:52:35.759Z,26.50
2023-04-10T14:55:02.884Z,27.30
2023-04-10T14:57:29.720Z,27.70
2023-04-10T14:59:56.867Z,28.40
2023-04-10T15:02:23.734Z,29.00
2023-04-10T15:04:50.889Z,29.50
2023-04-10T15:07:17.637Z,30.00
2023-04-10T15:09:44.548Z,30.20
2023-04-10T15:12:11.354Z,29.30
2023-04-10T15:14:38.145Z,29.60
2023-04-10T15:17:05.258Z,28.80
2023-04-10T15:19:32.244Z,28.20
2023-04-10T15:21:59.063Z,28.80
2023-04-10T15:24:25.930Z,29.20
2023-04-10T15:26:53.599Z,28.40
2023-04-10T15:29:20.438Z,28.80
2023-04-10T15:31:47.224Z,28.60
2023-04-10T15:34:13.919Z,29.10
2023-04-10T15:36:40.611Z,29.50
2023-04-10T15:39:07.369Z,30.00
2023-04-10T15:41:34.472Z,31.20
2023-04-10T15:44:01.394Z,31.50
2023-04-10T15:46:32.249Z,31.40
2023-04-10T15:49:00.557Z,31.50
2023-04-10T15:51:27.699Z,31.10
2023-04-10T15:53:54.810Z,32.00
2023-04-10T15:56:21.791Z,33.40
2023-04-10T15:58:48.482Z,34.40
2023-04-10T16:01:15.293Z,35.30
2023-04-10T16:03:42.213Z,35.70
2023-04-10T16:06:09.197Z,36.20
2023-04-10T16:08:35.902Z,35.90
2023-04-10T16:11:02.639Z,36.50
2023-04-10T16:13:29.372Z,36.00
2023-04-10T16:15:56.297Z,36.60
2023-04-10T16:18:23.078Z,37.00
2023-04-10T16:20:49.838Z,37.60
2023-04-10T16:23:16.754Z,37.60
2023-04-10T16:25:43.531Z,37.60
2023-04-10T16:28:10.653Z,37.70
2023-04-10T16:30:39.567Z,38.40
2023-04-10T16:33:06.322Z,38.90
2023-04-10T16:35:33.189Z,39.20
2023-04-10T16:38:00.005Z,39.50
2023-04-10T16:40:32.806Z,40.00
2023-04-10T16:43:01.068Z,40.90
2023-04-10T16:45:28.044Z,40.60
2023-04-10T16:47:54.811Z,40.90
2023-04-10T16:50:21.616Z,41.70
2023-04-10T16:52:48.378Z,42.10
2023-04-10T16:55:15.312Z,42.10
2023-04-10T16:57:43.240Z,42.40
2023-04-10T17:00:11.471Z,42.80
2023-04-10T17:02:38.782Z,42.90
2023-04-10T17:05:06.091Z,43.00
2023-04-10T17:07:32.860Z,42.80
2023-04-10T17:09:59.932Z,43.00
2023-04-10T17:12:26.817Z,43.10
2023-04-10T17:14:53.568Z,43.40
2023-04-10T17:17:20.404Z,43.80
2023-04-10T17:19:47.261Z,43.90
2023-04-10T17:22:15.999Z,44.10
2023-04-10T17:24:44.576Z,44.40
2023-04-10T17:27:11.984Z,44.50
2023-04-10T17:29:39.291Z,44.80
2023-04-10T17:32:08.240Z,45.20
2023-04-10T17:34:35.312Z,45.40
2023-04-10T17:37:02.786Z,45.50
2023-04-10T17:39:29.629Z,45.70
2023-04-10T17:41:56.919Z,46.10
2023-04-10T17:44:29.765Z,46.50
2023-04-10T17:46:56.697Z,46.90
2023-04-10T17:49:23.528Z,47.70
2023-04-10T17:51:50.492Z,47.20
2023-04-10T17:54:17.221Z,47.50
2023-04-10T17:56:44.295Z,47.80
2023-04-10T17:59:11.057Z,48.20
2023-04-10T18:01:37.982Z,48.40
2023-04-10T18:04:05.240Z,48.80
2023-04-10T18:06:32.064Z,48.70
2023-04-10T18:08:58.909Z,48.90
2023-04-10T18:11:25.729Z,48.90
2023-04-10T18:13:52.486Z,49.10
2023-04-10T18:16:19.283Z,49.30
2023-04-10T18:18:46.128Z,49.30
2023-04-10T18:21:13.542Z,49.40
2023-04-10T18:23:40.742Z,49.50
2023-04-10T18:26:07.817Z,50.10
2023-04-10T18:28:35.797Z,50.00
2023-04-10T18:31:02.656Z,49.90
2023-04-10T18:33:29.491Z,50.10
2023-04-10T18:35:59.556Z,50.30
2023-04-10T18:38:26.808Z,50.60
2023-04-10T18:40:57.768Z,50.50
2023-04-10T18:43:27.253Z,50.60
2023-04-10T18:45:55.251Z,50.80
2023-04-10T18:48:22.556Z,51.30
2023-04-10T18:50:53.062Z,51.90
2023-04-10T18:53:22.902Z,52.10
2023-04-10T18:55:54.047Z,52.20
2023-04-10T18:58:22.132Z,52.40
2023-04-10T19:00:49.106Z,52.70
2023-04-10T19:03:16.389Z,52.60
2023-04-10T19:05:43.605Z,52.80
2023-04-10T19:08:14.570Z,52.70
2023-04-10T19:10:42.756Z,53.00
2023-04-10T19:13:11.632Z,53.20
2023-04-10T19:15:44.467Z,53.00
2023-04-10T19:18:13.952Z,53.10
2023-04-10T19:20:49.827Z,53.00
2023-04-10T19:23:18.600Z,53.00
2023-04-10T19:25:45.526Z,53.30
2023-04-10T19:28:12.456Z,53.30
2023-04-10T19:30:39.160Z,53.20
2023-04-10T19:33:06.042Z,53.10
2023-04-10T19:35:32.810Z,53.20
2023-04-10T19:37:59.563Z,53.50
2023-04-10T19:40:26.405Z,53.40
2023-04-10T19:42:53.262Z,53.40
2023-04-10T19:45:21.999Z,53.60
2023-04-10T19:47:50.995Z,53.50
2023-04-10T19:50:17.765Z,53.40
2023-04-10T19:52:44.509Z,53.30
2023-04-10T19:55:11.452Z,53.40
2023-04-10T19:57:38.173Z,53.40
2023-04-10T20:00:06.897Z,53.60
2023-04-10T20:02:33.727Z,53.30
2023-04-10T20:05:00.717Z,53.50
2023-04-10T20:07:27.496Z,53.60
2023-04-10T20:09:54.241Z,53.70
2023-04-10T20:12:21.005Z,53.60
2023-04-10T20:14:47.755Z,53.60
2023-04-10T20:17:16.334Z,53.80
2023-04-10T20:19:43.090Z,53.70
2023-04-10T20:22:09.910Z,54.00
2023-04-10T20:24:36.698Z,53.80
2023-04-10T20:27:03.638Z,53.90
2023-04-10T20:29:30.390Z,54.00
2023-04-10T20:31:57.222Z,54.10
2023-04-10T20:34:24.031Z,54.40
2023-04-10T20:36:50.816Z,54.60
2023-04-10T20:39:17.618Z,54.60
2023-04-10T20:41:44.355Z,54.70
2023-04-10T20:44:11.090Z,54.70
2023-04-10T20:46:38.080Z,54.60
2023-04-10T20:49:04.822Z,54.70
2023-04-10T20:51:33.547Z,55.00
2023-04-10T20:54:00.309Z,55.00
2023-04-10T20:56:33.257Z,54.80
2023-04-10T20:59:09.387Z,55.10
2023-04-10T21:01:36.396Z,55.40
2023-04-10T21:04:03.349Z,55.60
2023-04-10T21:06:33.477Z,55.80
2023-04-10T21:09:00.639Z,56.10
2023-04-10T21:11:27.616Z,56.10
2023-04-10T21:13:54.647Z,56.10
2023-04-10T21:16:21.526Z,56.10
2023-04-10T21:18:48.472Z,56.30
2023-04-10T21:21:15.371Z,56.30
2023-04-10T21:23:42.088Z,56.50
2023-04-10T21:26:08.810Z,56.60
2023-04-10T21:28:35.719Z,56.70
2023-04-10T21:31:02.506Z,56.70
2023-04-10T21:33:29.239Z,56.70
2023-04-10T21:35:56.285Z,56.90
2023-04-10T21:38:23.961Z,57.00
2023-04-10T21:40:52.504Z,57.10
2023-04-10T21:43:20.897Z,57.10
2023-04-10T21:45:47.863Z,57.10
2023-04-10T21:48:14.763Z,57.30
2023-04-10T21:50:41.937Z,57.20
2023-04-10T21:53:08.875Z,57.50
2023-04-10T21:55:35.635Z,57.60
2023-04-10T21:58:02.428Z,57.70
2023-04-10T22:00:29.306Z,57.60
2023-04-10T22:02:56.329Z,58.00
2023-04-10T22:05:24.385Z,58.10
2023-04-10T22:07:52.082Z,58.20
2023-04-10T22:10:19.475Z,58.10
2023-04-10T22:12:48.399Z,58.20
2023-04-10T22:15:16.317Z,58.40
2023-04-10T22:17:43.265Z,58.40
2023-04-10T22:20:10.687Z,58.40
2023-04-10T22:22:37.587Z,58.50
2023-04-10T22:25:04.839Z,58.60
2023-04-10T22:27:33.101Z,58.80
2023-04-10T22:30:03.762Z,59.00
2023-04-10T22:32:32.134Z,59.00
2023-04-10T22:34:59.911Z,59.30
2023-04-10T22:37:27.695Z,59.30
2023-04-10T22:39:56.011Z,59.40
2023-04-10T22:42:23.365Z,59.60
2023-04-10T22:44:50.114Z,59.50
2023-04-10T22:47:16.867Z,60.70
2023-04-10T22:49:43.634Z,60.90
2023-04-10T22:52:12.082Z,61.00
2023-04-10T22:54:38.838Z,61.10
2023-04-10T22:57:05.923Z,61.60
2023-04-10T22:59:32.657Z,61.80
2023-04-10T23:01:59.520Z,62.00
2023-04-10T23:04:26.430Z,62.20
2023-04-10T23:06:53.180Z,62.50
2023-04-10T23:09:19.915Z,62.40
2023-04-10T23:11:47.277Z,62.40
2023-04-10T23:14:14.180Z,62.70
2023-04-10T23:16:40.917Z,62.90
2023-04-10T23:19:07.649Z,62.90
2023-04-10T23:21:34.388Z,63.10
2023-04-10T23:24:01.140Z,63.20
2023-04-10T23:26:33.665Z,63.30
2023-04-10T23:29:01.057Z,63.50
2023-04-10T23:31:27.958Z,63.60
2023-04-10T23:33:54.827Z,63.70
2023-04-10T23:36:21.545Z,63.90
2023-04-10T23:38:48.298Z,63.90
2023-04-10T23:41:15.023Z,64.10
2023-04-10T23:43:41.752Z,64.30
2023-04-10T23:46:08.530Z,64.50
2023-04-10T23:48:35.410Z,64.70
2023-04-10T23:51:05.090Z,64.90
2023-04-10T23:53:32.334Z,65.00
2023-04-10T23:55:59.155Z,65.00
2023-04-10T23:58:25.918Z,65.10
